sensor_id;sensor_type;location;lat;lon;timestamp;pressure;altitude;pressure_sealevel;temperature;humidity
73338;BME280;61575;49.908;35.556;2023-03-01T00:01:52;99620.34;;;-4.49;82.16
73338;BME280;61575;49.908;35.556;2023-03-01T00:04:54;99613.31;;;-4.49;82.52
73338;BME280;61575;49.908;35.556;2023-03-01T00:07:58;99602.06;;;-4.51;82.83
73338;BME280;61575;49.908;35.556;2023-03-01T00:14:13;99594.91;;;-4.47;82.05
73338;BME280;61575;49.908;35.556;2023-03-01T00:17:15;99586.19;;;-4.48;82.17
73338;BME280;61575;49.908;35.556;2023-03-01T00:20:17;99582.34;;;-4.41;81.83
73338;BME280;61575;49.908;35.556;2023-03-01T00:23:20;99579.09;;;-4.46;81.96
73338;BME280;61575;49.908;35.556;2023-03-01T00:26:22;99558.06;;;-4.44;81.91
73338;BME280;61575;49.908;35.556;2023-03-01T00:29:25;99558.84;;;-4.42;81.83
73338;BME280;61575;49.908;35.556;2023-03-01T00:32:27;99538.53;;;-4.56;82.32
73338;BME280;61575;49.908;35.556;2023-03-01T00:35:32;99532.53;;;-4.58;82.58
73338;BME280;61575;49.908;35.556;2023-03-01T00:38:38;99526.91;;;-4.50;82.53
73338;BME280;61575;49.908;35.556;2023-03-01T00:41:41;99534.91;;;-4.53;82.27
73338;BME280;61575;49.908;35.556;2023-03-01T00:44:43;99528.44;;;-4.63;82.80
73338;BME280;61575;49.908;35.556;2023-03-01T00:47:45;99517.66;;;-4.57;82.75
73338;BME280;61575;49.908;35.556;2023-03-01T00:50:49;99517.50;;;-4.54;82.22
73338;BME280;61575;49.908;35.556;2023-03-01T00:53:53;99515.66;;;-4.52;82.08
73338;BME280;61575;49.908;35.556;2023-03-01T00:56:55;99518.66;;;-4.60;82.44
73338;BME280;61575;49.908;35.556;2023-03-01T01:00:00;99519.19;;;-4.53;82.36
73338;BME280;61575;49.908;35.556;2023-03-01T01:03:01;99523.22;;;-4.46;82.24
73338;BME280;61575;49.908;35.556;2023-03-01T01:06:04;99504.09;;;-4.48;82.33
73338;BME280;61575;49.908;35.556;2023-03-01T01:09:13;99508.72;;;-4.53;81.97
73338;BME280;61575;49.908;35.556;2023-03-01T01:12:18;99504.63;;;-4.42;82.11
73338;BME280;61575;49.908;35.556;2023-03-01T01:15:20;99499.16;;;-4.37;81.97
73338;BME280;61575;49.908;35.556;2023-03-01T01:18:22;99494.53;;;-4.49;82.10
73338;BME280;61575;49.908;35.556;2023-03-01T01:21:27;99479.44;;;-4.44;82.01
73338;BME280;61575;49.908;35.556;2023-03-01T01:24:30;99469.03;;;-4.46;81.64
73338;BME280;61575;49.908;35.556;2023-03-01T01:27:32;99449.91;;;-4.48;81.93
73338;BME280;61575;49.908;35.556;2023-03-01T01:30:34;99452.84;;;-4.54;82.12
73338;BME280;61575;49.908;35.556;2023-03-01T01:33:36;99446.66;;;-4.53;81.95
73338;BME280;61575;49.908;35.556;2023-03-01T01:36:38;99454.59;;;-4.54;82.66
73338;BME280;61575;49.908;35.556;2023-03-01T01:39:40;99433.34;;;-4.48;82.10
73338;BME280;61575;49.908;35.556;2023-03-01T01:42:42;99440.59;;;-4.53;82.40
73338;BME280;61575;49.908;35.556;2023-03-01T01:45:47;99442.97;;;-4.49;82.24
73338;BME280;61575;49.908;35.556;2023-03-01T01:48:57;99449.69;;;-4.43;82.00
73338;BME280;61575;49.908;35.556;2023-03-01T01:55:18;99445.91;;;-4.55;82.98
73338;BME280;61575;49.908;35.556;2023-03-01T01:58:24;99447.13;;;-4.45;82.80
73338;BME280;61575;49.908;35.556;2023-03-01T02:01:28;99451.38;;;-4.59;83.06
73338;BME280;61575;49.908;35.556;2023-03-01T02:04:32;99449.38;;;-4.54;82.96
73338;BME280;61575;49.908;35.556;2023-03-01T02:07:34;99441.28;;;-4.50;82.48
73338;BME280;61575;49.908;35.556;2023-03-01T02:10:38;99441.81;;;-4.43;82.68
73338;BME280;61575;49.908;35.556;2023-03-01T02:13:41;99444.66;;;-4.48;82.59
73338;BME280;61575;49.908;35.556;2023-03-01T02:16:43;99434.88;;;-4.44;82.36
73338;BME280;61575;49.908;35.556;2023-03-01T02:22:59;99425.88;;;-4.56;82.85
73338;BME280;61575;49.908;35.556;2023-03-01T02:26:06;99414.31;;;-4.52;83.08
73338;BME280;61575;49.908;35.556;2023-03-01T02:29:10;99415.38;;;-4.56;83.08
73338;BME280;61575;49.908;35.556;2023-03-01T02:32:13;99406.97;;;-4.45;82.73
73338;BME280;61575;49.908;35.556;2023-03-01T02:35:17;99397.34;;;-4.62;83.15
73338;BME280;61575;49.908;35.556;2023-03-01T02:38:21;99400.13;;;-4.48;82.94
73338;BME280;61575;49.908;35.556;2023-03-01T02:41:26;99395.81;;;-4.49;82.85
73338;BME280;61575;49.908;35.556;2023-03-01T02:44:30;99387.94;;;-4.49;83.11
73338;BME280;61575;49.908;35.556;2023-03-01T02:47:32;99381.69;;;-4.46;82.90
73338;BME280;61575;49.908;35.556;2023-03-01T02:57:18;99368.53;;;-4.62;83.42
73338;BME280;61575;49.908;35.556;2023-03-01T03:00:24;99372.44;;;-4.53;83.39
73338;BME280;61575;49.908;35.556;2023-03-01T03:03:27;99361.88;;;-4.52;83.33
73338;BME280;61575;49.908;35.556;2023-03-01T03:06:32;99352.09;;;-4.48;83.05
73338;BME280;61575;49.908;35.556;2023-03-01T03:09:34;99351.47;;;-4.53;82.94
73338;BME280;61575;49.908;35.556;2023-03-01T03:12:37;99347.34;;;-4.57;83.39
73338;BME280;61575;49.908;35.556;2023-03-01T03:15:41;99350.63;;;-4.54;83.11
73338;BME280;61575;49.908;35.556;2023-03-01T03:18:44;99346.16;;;-4.52;83.06
73338;BME280;61575;49.908;35.556;2023-03-01T03:21:46;99331.13;;;-4.48;83.21
73338;BME280;61575;49.908;35.556;2023-03-01T03:24:48;99327.13;;;-4.55;83.54
73338;BME280;61575;49.908;35.556;2023-03-01T03:27:51;99314.72;;;-4.52;83.25
73338;BME280;61575;49.908;35.556;2023-03-01T03:30:59;99299.59;;;-4.47;83.33
73338;BME280;61575;49.908;35.556;2023-03-01T03:34:05;99302.38;;;-4.50;83.55
73338;BME280;61575;49.908;35.556;2023-03-01T03:37:07;99299.56;;;-4.62;84.22
73338;BME280;61575;49.908;35.556;2023-03-01T03:40:39;99291.06;;;-4.50;83.43
73338;BME280;61575;49.908;35.556;2023-03-01T03:43:43;99282.19;;;-4.48;83.31
73338;BME280;61575;49.908;35.556;2023-03-01T03:46:45;99272.63;;;-4.49;83.36
73338;BME280;61575;49.908;35.556;2023-03-01T03:49:47;99274.56;;;-4.52;84.04
73338;BME280;61575;49.908;35.556;2023-03-01T03:52:50;99283.44;;;-4.55;83.57
73338;BME280;61575;49.908;35.556;2023-03-01T03:55:53;99290.94;;;-4.64;84.46
73338;BME280;61575;49.908;35.556;2023-03-01T03:58:55;99292.16;;;-4.54;84.21
73338;BME280;61575;49.908;35.556;2023-03-01T04:01:57;99287.22;;;-4.60;84.38
73338;BME280;61575;49.908;35.556;2023-03-01T04:04:59;99281.00;;;-4.42;84.06
73338;BME280;61575;49.908;35.556;2023-03-01T04:08:01;99279.00;;;-4.37;84.35
73338;BME280;61575;49.908;35.556;2023-03-01T04:11:04;99287.78;;;-4.38;84.78
73338;BME280;61575;49.908;35.556;2023-03-01T04:14:25;99281.03;;;-4.26;84.78
73338;BME280;61575;49.908;35.556;2023-03-01T04:17:27;99281.56;;;-4.20;84.71
73338;BME280;61575;49.908;35.556;2023-03-01T04:20:31;99289.00;;;-4.12;84.77
73338;BME280;61575;49.908;35.556;2023-03-01T04:23:35;99273.09;;;-4.09;85.13
73338;BME280;61575;49.908;35.556;2023-03-01T04:26:37;99274.78;;;-4.08;85.28
73338;BME280;61575;49.908;35.556;2023-03-01T04:29:39;99269.53;;;-4.08;84.71
73338;BME280;61575;49.908;35.556;2023-03-01T04:32:41;99268.63;;;-3.91;84.68
73338;BME280;61575;49.908;35.556;2023-03-01T04:35:43;99267.25;;;-3.98;84.85
73338;BME280;61575;49.908;35.556;2023-03-01T04:38:45;99255.41;;;-3.90;84.86
73338;BME280;61575;49.908;35.556;2023-03-01T04:41:49;99260.91;;;-3.79;84.78
73338;BME280;61575;49.908;35.556;2023-03-01T04:44:51;99281.72;;;-3.76;84.21
73338;BME280;61575;49.908;35.556;2023-03-01T04:47:53;99282.56;;;-3.75;84.33
73338;BME280;61575;49.908;35.556;2023-03-01T04:50:55;99270.44;;;-3.62;84.57
73338;BME280;61575;49.908;35.556;2023-03-01T04:53:57;99276.28;;;-3.57;84.35
73338;BME280;61575;49.908;35.556;2023-03-01T04:56:59;99283.22;;;-3.56;84.21
73338;BME280;61575;49.908;35.556;2023-03-01T05:00:06;99283.91;;;-3.52;84.21
73338;BME280;61575;49.908;35.556;2023-03-01T05:03:26;99281.22;;;-3.36;84.07
73338;BME280;61575;49.908;35.556;2023-03-01T05:06:31;99298.31;;;-3.29;83.81
73338;BME280;61575;49.908;35.556;2023-03-01T05:09:36;99305.84;;;-3.23;83.43
73338;BME280;61575;49.908;35.556;2023-03-01T05:12:38;99299.97;;;-3.13;83.65
73338;BME280;61575;49.908;35.556;2023-03-01T05:15:42;99294.81;;;-3.14;83.25
73338;BME280;61575;49.908;35.556;2023-03-01T05:18:45;99307.59;;;-3.08;83.25
73338;BME280;61575;49.908;35.556;2023-03-01T05:21:48;99309.28;;;-3.07;83.42
73338;BME280;61575;49.908;35.556;2023-03-01T05:25:05;99306.47;;;-3.04;83.13
73338;BME280;61575;49.908;35.556;2023-03-01T05:28:12;99305.19;;;-2.97;82.72
73338;BME280;61575;49.908;35.556;2023-03-01T05:31:14;99306.66;;;-3.07;83.37
73338;BME280;61575;49.908;35.556;2023-03-01T05:34:16;99302.19;;;-2.91;82.71
73338;BME280;61575;49.908;35.556;2023-03-01T05:37:18;99305.56;;;-2.89;82.06
73338;BME280;61575;49.908;35.556;2023-03-01T05:40:22;99302.28;;;-2.92;82.49
73338;BME280;61575;49.908;35.556;2023-03-01T05:43:25;99301.66;;;-2.82;81.88
73338;BME280;61575;49.908;35.556;2023-03-01T05:46:27;99299.88;;;-2.81;82.14
73338;BME280;61575;49.908;35.556;2023-03-01T05:49:31;99289.84;;;-2.75;81.82
73338;BME280;61575;49.908;35.556;2023-03-01T05:52:39;99300.63;;;-2.79;82.19
73338;BME280;61575;49.908;35.556;2023-03-01T05:55:44;99299.31;;;-2.72;82.10
73338;BME280;61575;49.908;35.556;2023-03-01T05:58:48;99286.19;;;-2.72;81.62
73338;BME280;61575;49.908;35.556;2023-03-01T06:01:51;99289.56;;;-2.56;81.98
73338;BME280;61575;49.908;35.556;2023-03-01T06:04:53;99287.22;;;-2.60;82.21
73338;BME280;61575;49.908;35.556;2023-03-01T06:08:01;99285.53;;;-2.47;81.87
73338;BME280;61575;49.908;35.556;2023-03-01T06:11:05;99275.19;;;-2.36;81.40
73338;BME280;61575;49.908;35.556;2023-03-01T06:14:08;99277.91;;;-2.23;81.37
73338;BME280;61575;49.908;35.556;2023-03-01T06:17:13;99273.13;;;-2.17;81.07
73338;BME280;61575;49.908;35.556;2023-03-01T06:20:20;99271.78;;;-2.10;81.12
73338;BME280;61575;49.908;35.556;2023-03-01T06:23:23;99272.19;;;-2.16;81.29
73338;BME280;61575;49.908;35.556;2023-03-01T06:26:25;99264.56;;;-2.06;81.03
73338;BME280;61575;49.908;35.556;2023-03-01T06:29:27;99260.31;;;-1.94;80.50
73338;BME280;61575;49.908;35.556;2023-03-01T06:32:29;99256.69;;;-1.79;80.32
73338;BME280;61575;49.908;35.556;2023-03-01T06:35:34;99249.09;;;-1.57;80.00
73338;BME280;61575;49.908;35.556;2023-03-01T06:38:36;99257.13;;;-1.72;79.57
73338;BME280;61575;49.908;35.556;2023-03-01T06:41:38;99270.44;;;-1.61;79.09
73338;BME280;61575;49.908;35.556;2023-03-01T06:44:40;99274.22;;;-1.38;78.94
73338;BME280;61575;49.908;35.556;2023-03-01T06:47:42;99265.94;;;-1.20;78.62
73338;BME280;61575;49.908;35.556;2023-03-01T06:50:44;99255.38;;;-1.32;78.12
73338;BME280;61575;49.908;35.556;2023-03-01T06:53:46;99261.69;;;-1.35;78.01
73338;BME280;61575;49.908;35.556;2023-03-01T06:56:49;99264.78;;;-1.03;78.00
73338;BME280;61575;49.908;35.556;2023-03-01T06:59:51;99263.84;;;-0.89;77.79
73338;BME280;61575;49.908;35.556;2023-03-01T07:02:53;99254.88;;;-0.99;77.69
73338;BME280;61575;49.908;35.556;2023-03-01T07:05:59;99241.59;;;-0.85;77.45
73338;BME280;61575;49.908;35.556;2023-03-01T07:09:01;99254.38;;;-0.66;77.40
73338;BME280;61575;49.908;35.556;2023-03-01T07:12:04;99252.38;;;-0.50;76.34
73338;BME280;61575;49.908;35.556;2023-03-01T07:15:08;99232.53;;;-0.43;75.83
73338;BME280;61575;49.908;35.556;2023-03-01T07:18:11;99236.41;;;-0.36;76.41
73338;BME280;61575;49.908;35.556;2023-03-01T07:21:16;99229.13;;;-0.32;76.18
73338;BME280;61575;49.908;35.556;2023-03-01T07:24:18;99237.06;;;-0.45;75.87
73338;BME280;61575;49.908;35.556;2023-03-01T07:27:20;99240.44;;;-0.43;76.36
73338;BME280;61575;49.908;35.556;2023-03-01T07:30:24;99237.69;;;-0.41;76.43
73338;BME280;61575;49.908;35.556;2023-03-01T07:33:29;99244.03;;;-0.44;76.50
73338;BME280;61575;49.908;35.556;2023-03-01T07:36:30;99247.94;;;-0.62;76.87
73338;BME280;61575;49.908;35.556;2023-03-01T07:39:33;99242.44;;;-0.47;77.13
73338;BME280;61575;49.908;35.556;2023-03-01T07:42:35;99249.94;;;-0.53;77.17
73338;BME280;61575;49.908;35.556;2023-03-01T07:45:37;99260.16;;;-0.49;77.36
73338;BME280;61575;49.908;35.556;2023-03-01T07:48:39;99248.78;;;-0.49;77.65
73338;BME280;61575;49.908;35.556;2023-03-01T07:51:42;99245.81;;;-0.57;77.54
73338;BME280;61575;49.908;35.556;2023-03-01T07:54:45;99257.63;;;-0.63;77.68
73338;BME280;61575;49.908;35.556;2023-03-01T07:57:46;99253.31;;;-0.77;78.28
73338;BME280;61575;49.908;35.556;2023-03-01T08:00:48;99257.75;;;-0.77;78.04
73338;BME280;61575;49.908;35.556;2023-03-01T08:03:50;99262.38;;;-0.81;78.48
73338;BME280;61575;49.908;35.556;2023-03-01T08:06:54;99262.81;;;-0.87;79.10
73338;BME280;61575;49.908;35.556;2023-03-01T08:09:56;99251.53;;;-0.76;77.92
73338;BME280;61575;49.908;35.556;2023-03-01T08:12:58;99253.63;;;-0.68;79.06
73338;BME280;61575;49.908;35.556;2023-03-01T08:16:05;99258.38;;;-0.61;78.47
73338;BME280;61575;49.908;35.556;2023-03-01T08:19:12;99260.47;;;-0.53;78.20
73338;BME280;61575;49.908;35.556;2023-03-01T08:22:14;99256.06;;;-0.53;78.49
73338;BME280;61575;49.908;35.556;2023-03-01T08:25:16;99253.19;;;-0.37;78.08
73338;BME280;61575;49.908;35.556;2023-03-01T08:28:18;99246.84;;;-0.34;78.10
73338;BME280;61575;49.908;35.556;2023-03-01T08:31:25;99251.91;;;-0.31;77.74
73338;BME280;61575;49.908;35.556;2023-03-01T08:34:28;99244.66;;;-0.40;78.33
73338;BME280;61575;49.908;35.556;2023-03-01T08:37:32;99244.31;;;-0.36;78.36
73338;BME280;61575;49.908;35.556;2023-03-01T08:40:34;99241.66;;;-0.23;78.28
73338;BME280;61575;49.908;35.556;2023-03-01T08:43:36;99246.56;;;-0.55;78.44
73338;BME280;61575;49.908;35.556;2023-03-01T08:46:41;99254.34;;;-0.41;78.65
73338;BME280;61575;49.908;35.556;2023-03-01T08:49:43;99249.69;;;-0.25;78.72
73338;BME280;61575;49.908;35.556;2023-03-01T08:52:48;99246.53;;;-0.30;78.89
73338;BME280;61575;49.908;35.556;2023-03-01T08:55:50;99255.00;;;-0.37;79.07
73338;BME280;61575;49.908;35.556;2023-03-01T08:58:52;99251.94;;;-0.44;79.04
73338;BME280;61575;49.908;35.556;2023-03-01T09:01:54;99251.69;;;-0.28;78.89
73338;BME280;61575;49.908;35.556;2023-03-01T09:04:56;99252.22;;;-0.23;79.12
73338;BME280;61575;49.908;35.556;2023-03-01T09:07:58;99249.69;;;-0.25;78.91
73338;BME280;61575;49.908;35.556;2023-03-01T09:11:02;99255.78;;;-0.12;79.11
73338;BME280;61575;49.908;35.556;2023-03-01T09:14:08;99237.16;;;0.03;79.11
73338;BME280;61575;49.908;35.556;2023-03-01T09:17:10;99248.31;;;0.19;78.55
73338;BME280;61575;49.908;35.556;2023-03-01T09:20:12;99239.25;;;0.34;78.29
73338;BME280;61575;49.908;35.556;2023-03-01T09:23:14;99238.97;;;0.26;78.19
73338;BME280;61575;49.908;35.556;2023-03-01T09:26:19;99237.03;;;0.41;78.02
73338;BME280;61575;49.908;35.556;2023-03-01T09:29:22;99236.19;;;0.40;77.97
73338;BME280;61575;49.908;35.556;2023-03-01T09:32:25;99232.34;;;0.44;77.89
73338;BME280;61575;49.908;35.556;2023-03-01T09:35:27;99238.09;;;0.38;78.12
73338;BME280;61575;49.908;35.556;2023-03-01T09:38:29;99247.19;;;0.34;78.33
73338;BME280;61575;49.908;35.556;2023-03-01T09:42:00;99236.91;;;0.42;77.79
73338;BME280;61575;49.908;35.556;2023-03-01T09:45:19;99249.44;;;0.51;78.23
73338;BME280;61575;49.908;35.556;2023-03-01T09:48:27;99237.63;;;0.44;78.01
73338;BME280;61575;49.908;35.556;2023-03-01T09:51:33;99247.19;;;0.58;77.89
73338;BME280;61575;49.908;35.556;2023-03-01T09:54:36;99235.50;;;0.49;78.12
73338;BME280;61575;49.908;35.556;2023-03-01T09:57:57;99231.22;;;0.60;77.85
73338;BME280;61575;49.908;35.556;2023-03-01T10:07:38;99224.03;;;1.08;77.08
73338;BME280;61575;49.908;35.556;2023-03-01T10:10:49;99225.53;;;1.45;76.59
73338;BME280;61575;49.908;35.556;2023-03-01T10:17:24;99226.84;;;1.62;75.82
73338;BME280;61575;49.908;35.556;2023-03-01T10:20:40;99219.03;;;1.83;75.15
73338;BME280;61575;49.908;35.556;2023-03-01T10:23:50;99223.50;;;1.60;75.06
73338;BME280;61575;49.908;35.556;2023-03-01T10:26:57;99228.53;;;1.63;75.53
73338;BME280;61575;49.908;35.556;2023-03-01T10:33:23;99219.41;;;1.45;76.11
73338;BME280;61575;49.908;35.556;2023-03-01T10:36:32;99219.28;;;1.58;75.90
73338;BME280;61575;49.908;35.556;2023-03-01T10:39:34;99215.66;;;1.81;75.17
73338;BME280;61575;49.908;35.556;2023-03-01T10:42:47;99222.34;;;2.19;74.45
73338;BME280;61575;49.908;35.556;2023-03-01T10:45:50;99220.53;;;2.19;73.79
73338;BME280;61575;49.908;35.556;2023-03-01T10:52:23;99219.84;;;2.06;73.70
73338;BME280;61575;49.908;35.556;2023-03-01T10:55:33;99220.09;;;2.03;73.27
73338;BME280;61575;49.908;35.556;2023-03-01T10:58:38;99221.66;;;1.94;74.01
73338;BME280;61575;49.908;35.556;2023-03-01T11:01:40;99228.16;;;1.90;74.32
73338;BME280;61575;49.908;35.556;2023-03-01T11:04:57;99227.94;;;1.82;74.34
73338;BME280;61575;49.908;35.556;2023-03-01T11:08:01;99217.94;;;1.86;74.36
73338;BME280;61575;49.908;35.556;2023-03-01T11:11:31;99228.03;;;1.92;74.33
73338;BME280;61575;49.908;35.556;2023-03-01T11:14:37;99214.06;;;2.01;74.37
73338;BME280;61575;49.908;35.556;2023-03-01T11:17:43;99216.94;;;2.09;74.40
73338;BME280;61575;49.908;35.556;2023-03-01T11:20:59;99210.53;;;2.23;74.01
73338;BME280;61575;49.908;35.556;2023-03-01T11:24:06;99214.13;;;2.22;73.63
73338;BME280;61575;49.908;35.556;2023-03-01T11:27:31;99209.81;;;2.21;73.54
73338;BME280;61575;49.908;35.556;2023-03-01T11:30:39;99202.94;;;2.18;73.44
73338;BME280;61575;49.908;35.556;2023-03-01T11:33:56;99203.75;;;2.30;73.55
73338;BME280;61575;49.908;35.556;2023-03-01T11:37:03;99205.75;;;2.48;73.13
73338;BME280;61575;49.908;35.556;2023-03-01T11:40:21;99213.97;;;2.66;72.84
73338;BME280;61575;49.908;35.556;2023-03-01T11:50:28;99220.13;;;2.67;71.83
73338;BME280;61575;49.908;35.556;2023-03-01T11:57:07;99223.50;;;2.37;72.04
73338;BME280;61575;49.908;35.556;2023-03-01T12:03:34;99226.00;;;2.38;72.19
73338;BME280;61575;49.908;35.556;2023-03-01T12:06:54;99216.75;;;2.33;72.63
73338;BME280;61575;49.908;35.556;2023-03-01T12:19:56;99222.88;;;1.79;73.42
73338;BME280;61575;49.908;35.556;2023-03-01T12:23:30;99225.50;;;1.90;74.46
73338;BME280;61575;49.908;35.556;2023-03-01T12:26:38;99231.88;;;2.10;74.56
73338;BME280;61575;49.908;35.556;2023-03-01T12:29:51;99234.56;;;1.76;75.73
73338;BME280;61575;49.908;35.556;2023-03-01T12:43:36;99256.69;;;1.53;76.85
73338;BME280;61575;49.908;35.556;2023-03-01T12:49:58;99272.06;;;1.48;77.16
73338;BME280;61575;49.908;35.556;2023-03-01T12:53:05;99264.38;;;1.45;77.49
73338;BME280;61575;49.908;35.556;2023-03-01T12:56:10;99270.38;;;1.47;77.86
73338;BME280;61575;49.908;35.556;2023-03-01T12:59:29;99269.06;;;1.53;78.05
73338;BME280;61575;49.908;35.556;2023-03-01T13:03:05;99271.72;;;1.64;78.42
73338;BME280;61575;49.908;35.556;2023-03-01T13:06:11;99286.53;;;1.66;78.25
73338;BME280;61575;49.908;35.556;2023-03-01T13:15:52;99284.13;;;1.74;77.67
73338;BME280;61575;49.908;35.556;2023-03-01T13:19:08;99290.38;;;1.62;77.85
73338;BME280;61575;49.908;35.556;2023-03-01T13:22:29;99286.53;;;1.66;77.55
73338;BME280;61575;49.908;35.556;2023-03-01T13:29:26;99285.81;;;1.75;77.43
73338;BME280;61575;49.908;35.556;2023-03-01T13:32:37;99280.88;;;1.71;77.18
73338;BME280;61575;49.908;35.556;2023-03-01T13:35:48;99299.06;;;1.75;76.57
73338;BME280;61575;49.908;35.556;2023-03-01T13:41:56;99311.03;;;1.46;74.09
73338;BME280;61575;49.908;35.556;2023-03-01T13:48:38;99324.44;;;1.21;72.53
73338;BME280;61575;49.908;35.556;2023-03-01T13:51:41;99326.09;;;1.10;72.54
73338;BME280;61575;49.908;35.556;2023-03-01T13:54:43;99327.00;;;0.98;72.64
73338;BME280;61575;49.908;35.556;2023-03-01T13:57:56;99325.78;;;0.91;72.16
73338;BME280;61575;49.908;35.556;2023-03-01T14:01:06;99336.19;;;0.81;71.94
73338;BME280;61575;49.908;35.556;2023-03-01T14:04:25;99334.16;;;0.85;71.80
73338;BME280;61575;49.908;35.556;2023-03-01T14:07:28;99330.44;;;0.88;71.83
73338;BME280;61575;49.908;35.556;2023-03-01T14:20:27;99340.97;;;1.00;70.91
73338;BME280;61575;49.908;35.556;2023-03-01T14:23:31;99346.38;;;0.99;70.80
73338;BME280;61575;49.908;35.556;2023-03-01T14:26:35;99345.78;;;1.06;70.51
73338;BME280;61575;49.908;35.556;2023-03-01T14:29:39;99348.22;;;1.09;70.23
73338;BME280;61575;49.908;35.556;2023-03-01T14:32:41;99359.34;;;1.02;70.19
73338;BME280;61575;49.908;35.556;2023-03-01T14:35:52;99353.91;;;0.92;69.45
73338;BME280;61575;49.908;35.556;2023-03-01T14:38:58;99366.28;;;0.92;69.83
73338;BME280;61575;49.908;35.556;2023-03-01T14:42:07;99371.44;;;0.93;69.52
73338;BME280;61575;49.908;35.556;2023-03-01T14:45:16;99371.91;;;0.87;69.59
73338;BME280;61575;49.908;35.556;2023-03-01T14:48:19;99373.31;;;0.80;67.59
73338;BME280;61575;49.908;35.556;2023-03-01T14:51:24;99381.69;;;0.74;66.91
73338;BME280;61575;49.908;35.556;2023-03-01T14:54:29;99384.88;;;0.66;65.46
73338;BME280;61575;49.908;35.556;2023-03-01T14:57:33;99388.28;;;0.56;64.52
73338;BME280;61575;49.908;35.556;2023-03-01T15:00:35;99395.91;;;0.47;63.69
73338;BME280;61575;49.908;35.556;2023-03-01T15:03:46;99402.59;;;0.40;62.71
73338;BME280;61575;49.908;35.556;2023-03-01T15:06:55;99403.56;;;0.27;60.86
73338;BME280;61575;49.908;35.556;2023-03-01T15:09:59;99404.63;;;0.24;61.12
73338;BME280;61575;49.908;35.556;2023-03-01T15:13:23;99408.97;;;0.12;59.29
73338;BME280;61575;49.908;35.556;2023-03-01T15:16:29;99411.28;;;0.04;60.01
73338;BME280;61575;49.908;35.556;2023-03-01T15:19:35;99420.47;;;-0.01;60.15
73338;BME280;61575;49.908;35.556;2023-03-01T15:22:37;99416.47;;;-0.07;60.34
73338;BME280;61575;49.908;35.556;2023-03-01T15:25:44;99418.16;;;-0.19;59.33
73338;BME280;61575;49.908;35.556;2023-03-01T15:28:51;99419.31;;;-0.23;60.01
73338;BME280;61575;49.908;35.556;2023-03-01T15:35:37;99416.03;;;-0.39;58.34
73338;BME280;61575;49.908;35.556;2023-03-01T15:38:55;99433.75;;;-0.41;59.35
73338;BME280;61575;49.908;35.556;2023-03-01T15:41:58;99436.59;;;-0.44;59.87
73338;BME280;61575;49.908;35.556;2023-03-01T15:48:18;99441.31;;;-0.49;59.96
73338;BME280;61575;49.908;35.556;2023-03-01T15:51:27;99438.78;;;-0.51;60.39
73338;BME280;61575;49.908;35.556;2023-03-01T15:54:33;99435.41;;;-0.53;60.24
73338;BME280;61575;49.908;35.556;2023-03-01T15:57:35;99440.78;;;-0.54;59.90
73338;BME280;61575;49.908;35.556;2023-03-01T16:00:37;99440.84;;;-0.68;60.53
73338;BME280;61575;49.908;35.556;2023-03-01T16:03:58;99442.75;;;-0.70;60.58
73338;BME280;61575;49.908;35.556;2023-03-01T16:07:01;99451.25;;;-0.80;59.77
73338;BME280;61575;49.908;35.556;2023-03-01T16:10:03;99441.75;;;-0.82;59.71
73338;BME280;61575;49.908;35.556;2023-03-01T16:13:05;99453.03;;;-0.80;59.37
73338;BME280;61575;49.908;35.556;2023-03-01T16:16:10;99456.22;;;-0.75;59.42
73338;BME280;61575;49.908;35.556;2023-03-01T16:19:15;99454.44;;;-0.74;59.38
73338;BME280;61575;49.908;35.556;2023-03-01T16:22:17;99462.34;;;-0.74;59.35
73338;BME280;61575;49.908;35.556;2023-03-01T16:25:20;99462.53;;;-0.78;59.07
73338;BME280;61575;49.908;35.556;2023-03-01T16:28:22;99456.72;;;-0.83;59.33
73338;BME280;61575;49.908;35.556;2023-03-01T16:31:24;99466.28;;;-0.94;59.19
73338;BME280;61575;49.908;35.556;2023-03-01T16:34:28;99465.88;;;-0.88;59.08
73338;BME280;61575;49.908;35.556;2023-03-01T16:37:32;99459.75;;;-0.89;58.81
73338;BME280;61575;49.908;35.556;2023-03-01T16:40:34;99464.28;;;-0.91;58.76
73338;BME280;61575;49.908;35.556;2023-03-01T16:43:36;99472.94;;;-0.89;58.96
73338;BME280;61575;49.908;35.556;2023-03-01T16:46:41;99471.16;;;-0.88;58.71
73338;BME280;61575;49.908;35.556;2023-03-01T16:49:43;99474.09;;;-0.93;59.13
73338;BME280;61575;49.908;35.556;2023-03-01T16:52:45;99480.31;;;-0.94;59.43
73338;BME280;61575;49.908;35.556;2023-03-01T16:55:53;99480.41;;;-0.95;60.20
73338;BME280;61575;49.908;35.556;2023-03-01T16:58:58;99481.63;;;-1.01;60.35
73338;BME280;61575;49.908;35.556;2023-03-01T17:02:04;99482.03;;;-1.07;60.75
73338;BME280;61575;49.908;35.556;2023-03-01T17:05:08;99471.91;;;-1.13;60.21
73338;BME280;61575;49.908;35.556;2023-03-01T17:08:10;99476.72;;;-1.20;60.10
73338;BME280;61575;49.908;35.556;2023-03-01T17:11:16;99483.22;;;-1.25;60.02
73338;BME280;61575;49.908;35.556;2023-03-01T17:14:19;99496.28;;;-1.24;59.94
73338;BME280;61575;49.908;35.556;2023-03-01T17:17:21;99488.69;;;-1.28;60.78
73338;BME280;61575;49.908;35.556;2023-03-01T17:20:23;99498.28;;;-1.41;61.50
73338;BME280;61575;49.908;35.556;2023-03-01T17:23:26;99496.03;;;-1.48;61.75
73338;BME280;61575;49.908;35.556;2023-03-01T17:26:28;99487.75;;;-1.56;61.71
73338;BME280;61575;49.908;35.556;2023-03-01T17:29:31;99488.97;;;-1.61;61.31
73338;BME280;61575;49.908;35.556;2023-03-01T17:32:33;99483.25;;;-1.68;61.11
73338;BME280;61575;49.908;35.556;2023-03-01T17:35:37;99480.91;;;-1.72;61.69
73338;BME280;61575;49.908;35.556;2023-03-01T17:38:39;99484.38;;;-1.72;61.81
73338;BME280;61575;49.908;35.556;2023-03-01T17:41:42;99481.25;;;-1.79;61.01
73338;BME280;61575;49.908;35.556;2023-03-01T17:44:44;99487.56;;;-1.81;62.11
73338;BME280;61575;49.908;35.556;2023-03-01T17:47:48;99487.94;;;-1.87;63.54
73338;BME280;61575;49.908;35.556;2023-03-01T17:50:50;99483.13;;;-1.95;63.22
73338;BME280;61575;49.908;35.556;2023-03-01T17:53:55;99483.50;;;-2.01;63.32
73338;BME280;61575;49.908;35.556;2023-03-01T17:56:57;99479.72;;;-2.11;63.77